sensor_id;sensor_type;location;lat;lon;timestamp;P1;durP1;ratioP1;P2;durP2;ratioP2
18206;SDS011;9229;52.354;20.886;2022-10-03T00:01:32;14.35;;;10.60;;
18206;SDS011;9229;52.354;20.886;2022-10-03T00:07:01;16.42;;;10.05;;
18206;SDS011;9229;52.354;20.886;2022-10-03T00:12:30;13.52;;;9.63;;
18206;SDS011;9229;52.354;20.886;2022-10-03T00:17:43;13.25;;;9.73;;
18206;SDS011;9229;52.354;20.886;2022-10-03T00:22:52;14.45;;;9.65;;
18206;SDS011;9229;52.354;20.886;2022-10-03T00:28:11;13.35;;;8.68;;
18206;SDS011;9229;52.354;20.886;2022-10-03T00:33:26;15.35;;;8.63;;
18206;SDS011;9229;52.354;20.886;2022-10-03T00:38:39;13.95;;;9.50;;
18206;SDS011;9229;52.354;20.886;2022-10-03T00:44:10;13.13;;;8.63;;
18206;SDS011;9229;52.354;20.886;2022-10-03T00:49:52;12.18;;;7.97;;
18206;SDS011;9229;52.354;20.886;2022-10-03T00:55:17;10.85;;;7.88;;
18206;SDS011;9229;52.354;20.886;2022-10-03T01:00:26;12.32;;;8.40;;
18206;SDS011;9229;52.354;20.886;2022-10-03T01:05:30;15.60;;;8.82;;
18206;SDS011;9229;52.354;20.886;2022-10-03T01:10:47;13.02;;;8.10;;
18206;SDS011;9229;52.354;20.886;2022-10-03T01:15:59;13.18;;;8.07;;
18206;SDS011;9229;52.354;20.886;2022-10-03T01:21:11;15.00;;;9.05;;
18206;SDS011;9229;52.354;20.886;2022-10-03T01:26:42;20.23;;;10.43;;
18206;SDS011;9229;52.354;20.886;2022-10-03T01:31:56;16.92;;;10.48;;
18206;SDS011;9229;52.354;20.886;2022-10-03T01:37:06;16.10;;;10.15;;
18206;SDS011;9229;52.354;20.886;2022-10-03T01:42:13;16.45;;;11.00;;
18206;SDS011;9229;52.354;20.886;2022-10-03T01:47:24;15.15;;;10.32;;
18206;SDS011;9229;52.354;20.886;2022-10-03T01:52:35;15.50;;;9.80;;
18206;SDS011;9229;52.354;20.886;2022-10-03T01:57:42;16.17;;;10.13;;
18206;SDS011;9229;52.354;20.886;2022-10-03T02:02:51;18.55;;;10.48;;
18206;SDS011;9229;52.354;20.886;2022-10-03T02:08:02;13.73;;;9.70;;
18206;SDS011;9229;52.354;20.886;2022-10-03T02:13:13;14.40;;;9.38;;
18206;SDS011;9229;52.354;20.886;2022-10-03T02:18:25;13.00;;;8.95;;
18206;SDS011;9229;52.354;20.886;2022-10-03T02:23:37;9.63;;;8.40;;
18206;SDS011;9229;52.354;20.886;2022-10-03T02:28:47;10.63;;;7.80;;
18206;SDS011;9229;52.354;20.886;2022-10-03T02:34:32;9.55;;;7.45;;
18206;SDS011;9229;52.354;20.886;2022-10-03T02:39:57;14.55;;;8.50;;
18206;SDS011;9229;52.354;20.886;2022-10-03T02:45:18;15.27;;;9.50;;
18206;SDS011;9229;52.354;20.886;2022-10-03T03:02:11;15.90;;;8.60;;
18206;SDS011;9229;52.354;20.886;2022-10-03T03:07:50;12.80;;;9.75;;
18206;SDS011;9229;52.354;20.886;2022-10-03T03:13:24;13.65;;;9.23;;
18206;SDS011;9229;52.354;20.886;2022-10-03T03:18:48;15.05;;;9.13;;
18206;SDS011;9229;52.354;20.886;2022-10-03T03:24:09;10.88;;;9.32;;
18206;SDS011;9229;52.354;20.886;2022-10-03T03:29:26;10.27;;;8.25;;
18206;SDS011;9229;52.354;20.886;2022-10-03T03:34:40;9.82;;;8.82;;
18206;SDS011;9229;52.354;20.886;2022-10-03T03:45:20;13.48;;;9.80;;
18206;SDS011;9229;52.354;20.886;2022-10-03T03:50:38;13.40;;;10.27;;
18206;SDS011;9229;52.354;20.886;2022-10-03T03:55:57;12.85;;;9.85;;
18206;SDS011;9229;52.354;20.886;2022-10-03T04:01:25;12.98;;;10.23;;
18206;SDS011;9229;52.354;20.886;2022-10-03T04:06:42;15.23;;;10.68;;
18206;SDS011;9229;52.354;20.886;2022-10-03T04:12:00;19.90;;;10.30;;
18206;SDS011;9229;52.354;20.886;2022-10-03T04:17:13;20.58;;;9.73;;
18206;SDS011;9229;52.354;20.886;2022-10-03T04:22:53;11.35;;;9.48;;
18206;SDS011;9229;52.354;20.886;2022-10-03T04:33:45;14.02;;;9.18;;
18206;SDS011;9229;52.354;20.886;2022-10-03T04:39:00;13.35;;;8.63;;
18206;SDS011;9229;52.354;20.886;2022-10-03T04:44:14;13.70;;;8.68;;
18206;SDS011;9229;52.354;20.886;2022-10-03T04:49:33;10.95;;;8.43;;
18206;SDS011;9229;52.354;20.886;2022-10-03T04:54:40;12.15;;;8.02;;
18206;SDS011;9229;52.354;20.886;2022-10-03T04:59:54;12.02;;;7.85;;
18206;SDS011;9229;52.354;20.886;2022-10-03T05:05:11;10.10;;;7.88;;
18206;SDS011;9229;52.354;20.886;2022-10-03T05:10:38;11.13;;;7.78;;
18206;SDS011;9229;52.354;20.886;2022-10-03T05:15:53;8.50;;;7.68;;
18206;SDS011;9229;52.354;20.886;2022-10-03T05:21:03;11.80;;;7.80;;
18206;SDS011;9229;52.354;20.886;2022-10-03T05:26:10;9.73;;;7.20;;
18206;SDS011;9229;52.354;20.886;2022-10-03T05:31:25;7.53;;;6.57;;
18206;SDS011;9229;52.354;20.886;2022-10-03T05:36:40;8.23;;;7.30;;
18206;SDS011;9229;52.354;20.886;2022-10-03T05:41:57;9.07;;;6.90;;
18206;SDS011;9229;52.354;20.886;2022-10-03T05:47:09;6.32;;;5.72;;
18206;SDS011;9229;52.354;20.886;2022-10-03T05:52:42;6.75;;;5.78;;
18206;SDS011;9229;52.354;20.886;2022-10-03T05:58:12;5.72;;;5.18;;
18206;SDS011;9229;52.354;20.886;2022-10-03T06:03:34;7.72;;;5.30;;
18206;SDS011;9229;52.354;20.886;2022-10-03T06:08:55;5.20;;;4.88;;
18206;SDS011;9229;52.354;20.886;2022-10-03T06:14:29;6.97;;;5.43;;
18206;SDS011;9229;52.354;20.886;2022-10-03T06:19:44;8.70;;;4.90;;
18206;SDS011;9229;52.354;20.886;2022-10-03T06:24:56;7.60;;;4.20;;
18206;SDS011;9229;52.354;20.886;2022-10-03T06:30:32;8.05;;;5.10;;
18206;SDS011;9229;52.354;20.886;2022-10-03T06:35:55;6.97;;;5.05;;
18206;SDS011;9229;52.354;20.886;2022-10-03T06:41:25;6.85;;;4.50;;
18206;SDS011;9229;52.354;20.886;2022-10-03T06:47:20;4.50;;;4.13;;
18206;SDS011;9229;52.354;20.886;2022-10-03T07:04:01;3.60;;;3.10;;
18206;SDS011;9229;52.354;20.886;2022-10-03T07:09:33;5.22;;;3.38;;
18206;SDS011;9229;52.354;20.886;2022-10-03T07:15:03;4.57;;;3.20;;
18206;SDS011;9229;52.354;20.886;2022-10-03T07:20:48;8.27;;;2.78;;
18206;SDS011;9229;52.354;20.886;2022-10-03T07:31:44;3.65;;;3.00;;
18206;SDS011;9229;52.354;20.886;2022-10-03T07:37:01;2.97;;;2.63;;
18206;SDS011;9229;52.354;20.886;2022-10-03T07:42:36;3.20;;;2.70;;
18206;SDS011;9229;52.354;20.886;2022-10-03T07:48:23;3.05;;;2.90;;
18206;SDS011;9229;52.354;20.886;2022-10-03T07:54:10;3.63;;;2.60;;
18206;SDS011;9229;52.354;20.886;2022-10-03T07:59:32;3.70;;;2.63;;
18206;SDS011;9229;52.354;20.886;2022-10-03T08:05:03;5.80;;;3.13;;
18206;SDS011;9229;52.354;20.886;2022-10-03T08:10:26;3.58;;;2.90;;
18206;SDS011;9229;52.354;20.886;2022-10-03T08:15:53;4.05;;;2.33;;
18206;SDS011;9229;52.354;20.886;2022-10-03T08:21:12;4.05;;;2.60;;
18206;SDS011;9229;52.354;20.886;2022-10-03T08:26:20;2.53;;;2.40;;
18206;SDS011;9229;52.354;20.886;2022-10-03T08:31:43;2.78;;;2.42;;
18206;SDS011;9229;52.354;20.886;2022-10-03T08:37:23;3.28;;;2.97;;
18206;SDS011;9229;52.354;20.886;2022-10-03T08:48:50;3.60;;;3.30;;
18206;SDS011;9229;52.354;20.886;2022-10-03T08:54:05;7.97;;;3.17;;
18206;SDS011;9229;52.354;20.886;2022-10-03T08:59:41;5.68;;;3.13;;
18206;SDS011;9229;52.354;20.886;2022-10-03T09:10:53;4.15;;;3.42;;
18206;SDS011;9229;52.354;20.886;2022-10-03T09:16:29;5.85;;;3.63;;
18206;SDS011;9229;52.354;20.886;2022-10-03T09:22:07;4.90;;;3.63;;
18206;SDS011;9229;52.354;20.886;2022-10-03T09:27:32;4.80;;;3.63;;
18206;SDS011;9229;52.354;20.886;2022-10-03T09:33:07;3.50;;;3.30;;
18206;SDS011;9229;52.354;20.886;2022-10-03T09:38:37;5.32;;;3.58;;
18206;SDS011;9229;52.354;20.886;2022-10-03T09:49:33;3.55;;;3.38;;
18206;SDS011;9229;52.354;20.886;2022-10-03T09:54:52;5.45;;;3.67;;
18206;SDS011;9229;52.354;20.886;2022-10-03T10:00:10;4.32;;;3.53;;
18206;SDS011;9229;52.354;20.886;2022-10-03T10:05:30;3.50;;;3.25;;
18206;SDS011;9229;52.354;20.886;2022-10-03T10:11:03;3.60;;;3.40;;
18206;SDS011;9229;52.354;20.886;2022-10-03T10:16:18;3.03;;;2.83;;
18206;SDS011;9229;52.354;20.886;2022-10-03T10:21:53;4.15;;;3.92;;
18206;SDS011;9229;52.354;20.886;2022-10-03T10:33:04;3.00;;;2.90;;
18206;SDS011;9229;52.354;20.886;2022-10-03T10:38:36;2.90;;;2.80;;
18206;SDS011;9229;52.354;20.886;2022-10-03T11:01:38;1.48;;;1.48;;
18206;SDS011;9229;52.354;20.886;2022-10-03T11:07:21;1.40;;;1.33;;
18206;SDS011;9229;52.354;20.886;2022-10-03T11:30:26;2.97;;;2.55;;
18206;SDS011;9229;52.354;20.886;2022-10-03T11:42:01;8.50;;;1.90;;
18206;SDS011;9229;52.354;20.886;2022-10-03T11:47:15;7.10;;;1.70;;
18206;SDS011;9229;52.354;20.886;2022-10-03T11:52:41;5.15;;;1.73;;
18206;SDS011;9229;52.354;20.886;2022-10-03T11:57:59;1.70;;;1.60;;
18206;SDS011;9229;52.354;20.886;2022-10-03T12:03:12;1.73;;;1.63;;
18206;SDS011;9229;52.354;20.886;2022-10-03T12:08:24;1.70;;;1.60;;
18206;SDS011;9229;52.354;20.886;2022-10-03T12:13:55;1.70;;;1.60;;
18206;SDS011;9229;52.354;20.886;2022-10-03T12:19:20;1.80;;;1.70;;
18206;SDS011;9229;52.354;20.886;2022-10-03T12:24:30;1.70;;;1.55;;
18206;SDS011;9229;52.354;20.886;2022-10-03T12:29:43;1.92;;;1.60;;
18206;SDS011;9229;52.354;20.886;2022-10-03T12:34:57;7.22;;;1.73;;
18206;SDS011;9229;52.354;20.886;2022-10-03T12:40:24;1.58;;;1.50;;
18206;SDS011;9229;52.354;20.886;2022-10-03T12:45:33;3.15;;;1.50;;
18206;SDS011;9229;52.354;20.886;2022-10-03T12:50:44;5.35;;;1.50;;
18206;SDS011;9229;52.354;20.886;2022-10-03T12:56:01;1.95;;;1.45;;
18206;SDS011;9229;52.354;20.886;2022-10-03T13:01:20;3.20;;;1.52;;
18206;SDS011;9229;52.354;20.886;2022-10-03T13:06:33;2.75;;;1.27;;
18206;SDS011;9229;52.354;20.886;2022-10-03T13:11:41;1.20;;;1.20;;
18206;SDS011;9229;52.354;20.886;2022-10-03T13:16:58;1.25;;;1.15;;
18206;SDS011;9229;52.354;20.886;2022-10-03T13:22:11;1.50;;;1.25;;
18206;SDS011;9229;52.354;20.886;2022-10-03T13:27:29;1.75;;;1.42;;
18206;SDS011;9229;52.354;20.886;2022-10-03T13:32:46;1.30;;;1.30;;
18206;SDS011;9229;52.354;20.886;2022-10-03T13:43:37;1.48;;;1.38;;
18206;SDS011;9229;52.354;20.886;2022-10-03T13:48:45;8.48;;;1.30;;
18206;SDS011;9229;52.354;20.886;2022-10-03T13:54:00;1.60;;;1.50;;
18206;SDS011;9229;52.354;20.886;2022-10-03T13:59:40;5.13;;;1.40;;
18206;SDS011;9229;52.354;20.886;2022-10-03T14:05:02;1.70;;;1.60;;
18206;SDS011;9229;52.354;20.886;2022-10-03T14:16:00;1.20;;;1.20;;
18206;SDS011;9229;52.354;20.886;2022-10-03T14:21:20;1.50;;;1.40;;
18206;SDS011;9229;52.354;20.886;2022-10-03T14:26:50;1.38;;;1.38;;
18206;SDS011;9229;52.354;20.886;2022-10-03T14:32:00;3.20;;;1.23;;
18206;SDS011;9229;52.354;20.886;2022-10-03T14:37:14;1.42;;;1.33;;
18206;SDS011;9229;52.354;20.886;2022-10-03T14:48:02;3.22;;;1.50;;
18206;SDS011;9229;52.354;20.886;2022-10-03T14:53:20;1.30;;;1.30;;
18206;SDS011;9229;52.354;20.886;2022-10-03T14:58:29;1.38;;;1.27;;
18206;SDS011;9229;52.354;20.886;2022-10-03T15:03:34;2.25;;;1.20;;
18206;SDS011;9229;52.354;20.886;2022-10-03T15:08:40;1.65;;;1.55;;
18206;SDS011;9229;52.354;20.886;2022-10-03T15:13:46;2.17;;;1.50;;
18206;SDS011;9229;52.354;20.886;2022-10-03T15:19:11;2.58;;;1.30;;
18206;SDS011;9229;52.354;20.886;2022-10-03T15:24:21;1.48;;;1.40;;
18206;SDS011;9229;52.354;20.886;2022-10-03T15:29:41;2.25;;;1.40;;
18206;SDS011;9229;52.354;20.886;2022-10-03T15:34:46;1.20;;;1.17;;
18206;SDS011;9229;52.354;20.886;2022-10-03T15:40:21;1.48;;;1.38;;
18206;SDS011;9229;52.354;20.886;2022-10-03T15:45:32;1.40;;;1.30;;
18206;SDS011;9229;52.354;20.886;2022-10-03T15:50:36;1.08;;;1.08;;
18206;SDS011;9229;52.354;20.886;2022-10-03T15:55:41;2.72;;;1.55;;
18206;SDS011;9229;52.354;20.886;2022-10-03T16:00:51;1.30;;;1.30;;
18206;SDS011;9229;52.354;20.886;2022-10-03T16:06:09;1.48;;;1.48;;
18206;SDS011;9229;52.354;20.886;2022-10-03T16:11:17;1.60;;;1.60;;
18206;SDS011;9229;52.354;20.886;2022-10-03T16:16:23;2.58;;;1.77;;
18206;SDS011;9229;52.354;20.886;2022-10-03T16:21:46;1.77;;;1.70;;
18206;SDS011;9229;52.354;20.886;2022-10-03T16:26:54;1.90;;;1.80;;
18206;SDS011;9229;52.354;20.886;2022-10-03T16:32:05;1.80;;;1.80;;
18206;SDS011;9229;52.354;20.886;2022-10-03T16:37:14;3.08;;;2.00;;
18206;SDS011;9229;52.354;20.886;2022-10-03T16:42:21;4.82;;;1.92;;
18206;SDS011;9229;52.354;20.886;2022-10-03T16:47:27;1.90;;;1.80;;
18206;SDS011;9229;52.354;20.886;2022-10-03T16:52:34;3.72;;;2.08;;
18206;SDS011;9229;52.354;20.886;2022-10-03T16:57:40;5.10;;;2.28;;
18206;SDS011;9229;52.354;20.886;2022-10-03T17:02:47;2.83;;;2.53;;
18206;SDS011;9229;52.354;20.886;2022-10-03T17:07:49;2.72;;;2.50;;
18206;SDS011;9229;52.354;20.886;2022-10-03T17:12:56;2.88;;;2.60;;
18206;SDS011;9229;52.354;20.886;2022-10-03T17:18:04;5.38;;;2.90;;
18206;SDS011;9229;52.354;20.886;2022-10-03T17:23:19;2.78;;;2.58;;
18206;SDS011;9229;52.354;20.886;2022-10-03T17:28:30;3.75;;;3.45;;
18206;SDS011;9229;52.354;20.886;2022-10-03T17:33:40;4.25;;;3.92;;
18206;SDS011;9229;52.354;20.886;2022-10-03T17:38:45;5.68;;;4.18;;
18206;SDS011;9229;52.354;20.886;2022-10-03T17:43:58;7.75;;;4.53;;
18206;SDS011;9229;52.354;20.886;2022-10-03T17:49:17;4.57;;;4.18;;
18206;SDS011;9229;52.354;20.886;2022-10-03T17:54:25;4.13;;;3.60;;
18206;SDS011;9229;52.354;20.886;2022-10-03T17:59:34;4.28;;;3.30;;
18206;SDS011;9229;52.354;20.886;2022-10-03T18:04:47;3.53;;;3.22;;
18206;SDS011;9229;52.354;20.886;2022-10-03T18:09:57;4.30;;;3.25;;
18206;SDS011;9229;52.354;20.886;2022-10-03T18:15:05;4.22;;;3.17;;
18206;SDS011;9229;52.354;20.886;2022-10-03T18:20:26;3.33;;;3.03;;
18206;SDS011;9229;52.354;20.886;2022-10-03T18:25:49;11.50;;;3.47;;
18206;SDS011;9229;52.354;20.886;2022-10-03T18:31:03;6.03;;;3.95;;
18206;SDS011;9229;52.354;20.886;2022-10-03T18:36:09;5.53;;;4.43;;
18206;SDS011;9229;52.354;20.886;2022-10-03T18:41:17;5.10;;;4.18;;
18206;SDS011;9229;52.354;20.886;2022-10-03T18:46:21;4.28;;;3.88;;
18206;SDS011;9229;52.354;20.886;2022-10-03T18:51:31;9.48;;;4.03;;
18206;SDS011;9229;52.354;20.886;2022-10-03T18:56:39;3.90;;;3.47;;
18206;SDS011;9229;52.354;20.886;2022-10-03T19:01:56;6.05;;;4.57;;
18206;SDS011;9229;52.354;20.886;2022-10-03T19:07:08;10.90;;;4.55;;
18206;SDS011;9229;52.354;20.886;2022-10-03T19:12:19;6.68;;;4.47;;
18206;SDS011;9229;52.354;20.886;2022-10-03T19:17:32;6.80;;;4.80;;
18206;SDS011;9229;52.354;20.886;2022-10-03T19:22:40;5.22;;;4.72;;
18206;SDS011;9229;52.354;20.886;2022-10-03T19:27:53;4.85;;;4.25;;
18206;SDS011;9229;52.354;20.886;2022-10-03T19:33:01;5.05;;;4.22;;
18206;SDS011;9229;52.354;20.886;2022-10-03T19:38:14;4.57;;;4.15;;
18206;SDS011;9229;52.354;20.886;2022-10-03T19:49:13;7.80;;;4.80;;
18206;SDS011;9229;52.354;20.886;2022-10-03T19:54:26;7.63;;;5.35;;
18206;SDS011;9229;52.354;20.886;2022-10-03T19:59:42;5.90;;;5.03;;
18206;SDS011;9229;52.354;20.886;2022-10-03T20:04:56;6.32;;;5.72;;
18206;SDS011;9229;52.354;20.886;2022-10-03T20:10:05;5.82;;;5.07;;
18206;SDS011;9229;52.354;20.886;2022-10-03T20:15:17;7.68;;;5.75;;
18206;SDS011;9229;52.354;20.886;2022-10-03T20:20:24;10.95;;;6.18;;
18206;SDS011;9229;52.354;20.886;2022-10-03T20:25:29;11.00;;;6.25;;
18206;SDS011;9229;52.354;20.886;2022-10-03T20:30:43;16.50;;;9.82;;
18206;SDS011;9229;52.354;20.886;2022-10-03T20:35:52;23.40;;;14.27;;
18206;SDS011;9229;52.354;20.886;2022-10-03T20:41:02;12.93;;;9.10;;
18206;SDS011;9229;52.354;20.886;2022-10-03T20:46:17;20.70;;;11.55;;
18206;SDS011;9229;52.354;20.886;2022-10-03T20:51:23;12.68;;;8.60;;
18206;SDS011;9229;52.354;20.886;2022-10-03T20:56:41;22.17;;;11.00;;
18206;SDS011;9229;52.354;20.886;2022-10-03T21:01:56;15.20;;;8.75;;
18206;SDS011;9229;52.354;20.886;2022-10-03T21:07:10;20.60;;;10.48;;
18206;SDS011;9229;52.354;20.886;2022-10-03T21:12:23;12.30;;;7.95;;
18206;SDS011;9229;52.354;20.886;2022-10-03T21:17:29;8.90;;;7.28;;
18206;SDS011;9229;52.354;20.886;2022-10-03T21:22:34;34.78;;;19.88;;
18206;SDS011;9229;52.354;20.886;2022-10-03T21:27:37;67.88;;;27.20;;
18206;SDS011;9229;52.354;20.886;2022-10-03T21:32:50;16.17;;;10.23;;
18206;SDS011;9229;52.354;20.886;2022-10-03T21:38:09;9.63;;;7.80;;
18206;SDS011;9229;52.354;20.886;2022-10-03T21:43:25;11.98;;;9.05;;
18206;SDS011;9229;52.354;20.886;2022-10-03T21:48:54;14.90;;;7.72;;
18206;SDS011;9229;52.354;20.886;2022-10-03T21:54:16;15.30;;;10.05;;
18206;SDS011;9229;52.354;20.886;2022-10-03T21:59:37;27.85;;;16.35;;
18206;SDS011;9229;52.354;20.886;2022-10-03T22:04:56;18.77;;;11.88;;
18206;SDS011;9229;52.354;20.886;2022-10-03T22:10:14;16.15;;;8.95;;
18206;SDS011;9229;52.354;20.886;2022-10-03T22:15:24;48.17;;;22.30;;
18206;SDS011;9229;52.354;20.886;2022-10-03T22:20:33;15.43;;;9.77;;
18206;SDS011;9229;52.354;20.886;2022-10-03T22:25:41;17.13;;;9.95;;
18206;SDS011;9229;52.354;20.886;2022-10-03T22:30:53;15.73;;;8.82;;
18206;SDS011;9229;52.354;20.886;2022-10-03T22:36:03;10.70;;;7.60;;
18206;SDS011;9229;52.354;20.886;2022-10-03T22:41:13;14.55;;;8.10;;
18206;SDS011;9229;52.354;20.886;2022-10-03T22:46:21;25.88;;;12.88;;
18206;SDS011;9229;52.354;20.886;2022-10-03T22:51:26;11.02;;;8.30;;
18206;SDS011;9229;52.354;20.886;2022-10-03T22:56:32;25.45;;;12.23;;
18206;SDS011;9229;52.354;20.886;2022-10-03T23:01:38;19.27;;;11.32;;
18206;SDS011;9229;52.354;20.886;2022-10-03T23:06:52;11.93;;;7.70;;
18206;SDS011;9229;52.354;20.886;2022-10-03T23:12:07;13.20;;;8.25;;
18206;SDS011;9229;52.354;20.886;2022-10-03T23:17:16;7.75;;;7.05;;
18206;SDS011;9229;52.354;20.886;2022-10-03T23:22:36;9.90;;;8.05;;
18206;SDS011;9229;52.354;20.886;2022-10-03T23:27:51;11.15;;;7.05;;
18206;SDS011;9229;52.354;20.886;2022-10-03T23:33:07;9.00;;;6.57;;
18206;SDS011;9229;52.354;20.886;2022-10-03T23:44:00;14.02;;;6.85;;
18206;SDS011;9229;52.354;20.886;2022-10-03T23:49:01;9.30;;;6.38;;
18206;SDS011;9229;52.354;20.886;2022-10-03T23:54:06;8.23;;;6.35;;
18206;SDS011;9229;52.354;20.886;2022-10-03T23:59:18;8.82;;;7.22;;
